Terminal Aerodrome Forecast
Issued by NWS

Home | Current Version | Previous Version | Text Only | Print | Product List | Glossary On
Versions: 1 2 3 4 5 6 7 8 9 10 11 12 13
000
FTUS41 KRNK 291733
TAFLWB
TAF
KLWB 291733Z 2918/3018 00000KT P6SM -SHRA SCT025 OVC070
     FM300300 00000KT 5SM BR SCT025 OVC060
     FM301500 VRB03KT P6SM OVC050=

USA.gov is the U.S. government's official web portal to all federal, state and local government web resources and services.